Time;durP1;ratioP1;P1;durP2;ratioP2;P2;SDS_P1;SDS_P2;PMS_P1;PMS_P2;Temp;Humidity;BMP_temperature;BMP_pressure;BME280_temperature;BME280_humidity;BME280_pressure;Samples;Min_cycle;Max_cycle;Signal;HPM_P1;HPM_P2
2021/04/22 00:01:10;;;;;;;14.25;4.43;;;5.20;99.90;;;;;;5031625;28;20044;-46
2021/04/22 00:03:35;;;;;;;19.88;4.75;;;5.20;99.90;;;;;;5031773;28;20083;-46
2021/04/22 00:06:01;;;;;;;24.42;5.30;;;5.20;99.90;;;;;;5032069;28;20033;-46
2021/04/22 00:08:26;;;;;;;22.77;5.38;;;5.20;99.90;;;;;;5031408;28;20045;-47
2021/04/22 00:10:53;;;;;;;22.35;5.28;;;5.20;99.90;;;;;;5031747;28;20101;-47
2021/04/22 00:13:22;;;;;;;20.00;6.05;;;5.20;99.90;;;;;;5031666;28;20033;-47
2021/04/22 00:15:49;;;;;;;22.13;5.80;;;5.20;99.90;;;;;;5023788;28;20037;-46
2021/04/22 00:18:14;;;;;;;21.38;5.95;;;5.20;99.90;;;;;;5011304;28;20472;-47
2021/04/22 00:20:40;;;;;;;22.30;5.03;;;5.20;99.90;;;;;;5012056;28;20061;-46
2021/04/22 00:23:09;;;;;;;26.85;5.90;;;5.20;99.90;;;;;;5011903;28;20084;-46
2021/04/22 00:25:35;;;;;;;23.92;4.85;;;5.20;99.90;;;;;;5011792;28;20029;-46
2021/04/22 00:28:02;;;;;;;18.85;5.85;;;5.30;99.90;;;;;;5011271;28;20018;-45
2021/04/22 00:30:27;;;;;;;32.50;6.25;;;5.30;99.90;;;;;;5010915;28;20038;-46
2021/04/22 00:32:53;;;;;;;27.48;5.68;;;5.30;99.90;;;;;;5011399;28;20041;-46
2021/04/22 00:35:19;;;;;;;22.90;5.03;;;5.40;99.90;;;;;;5011299;28;20021;-45
2021/04/22 00:37:45;;;;;;;20.20;5.38;;;5.40;99.90;;;;;;5009292;28;20032;-47
2021/04/22 00:40:18;;;;;;;24.58;7.60;;;5.40;99.90;;;;;;5011136;28;20104;-45
2021/04/22 00:42:43;;;;;;;26.33;5.45;;;5.40;99.90;;;;;;5009713;28;20026;-44
2021/04/22 00:45:10;;;;;;;22.40;5.95;;;5.40;99.90;;;;;;5012962;28;20194;-47
2021/04/22 00:47:37;;;;;;;23.40;5.93;;;5.50;99.90;;;;;;5030122;28;20021;-45
2021/04/22 00:50:04;;;;;;;21.55;5.07;;;5.40;99.90;;;;;;5030770;28;20471;-45
2021/04/22 00:52:30;;;;;;;15.98;5.00;;;5.50;99.90;;;;;;5029477;28;20033;-46
2021/04/22 00:54:55;;;;;;;28.55;6.22;;;5.50;99.90;;;;;;5030774;28;20434;-47
2021/04/22 00:57:21;;;;;;;24.35;6.40;;;5.60;99.80;;;;;;5030126;28;20455;-48
2021/04/22 00:59:46;;;;;;;33.47;6.35;;;5.50;99.70;;;;;;5030408;28;20026;-48
2021/04/22 01:02:13;;;;;;;20.48;5.93;;;5.50;99.90;;;;;;5030182;28;20105;-47
2021/04/22 01:04:39;;;;;;;29.00;6.18;;;5.50;99.90;;;;;;5030874;28;20438;-46
2021/04/22 01:07:05;;;;;;;20.70;5.28;;;5.50;99.90;;;;;;5030705;28;20021;-45
2021/04/22 01:09:30;;;;;;;22.05;6.28;;;5.50;99.90;;;;;;5027597;28;20029;-46
2021/04/22 01:11:57;;;;;;;23.60;6.25;;;5.40;99.90;;;;;;5030193;28;20052;-45
2021/04/22 01:14:23;;;;;;;23.40;5.88;;;5.30;99.90;;;;;;5030534;28;20039;-46
2021/04/22 01:16:49;;;;;;;23.75;6.65;;;5.30;99.90;;;;;;5030455;28;20116;-46
2021/04/22 01:19:16;;;;;;;26.08;5.93;;;5.10;99.90;;;;;;5029883;28;20029;-46
2021/04/22 01:21:41;;;;;;;25.08;5.63;;;5.10;99.90;;;;;;5030459;28;20668;-46
2021/04/22 01:24:08;;;;;;;16.80;5.43;;;5.10;99.90;;;;;;5030082;28;20025;-46
2021/04/22 01:26:34;;;;;;;15.57;5.72;;;5.00;99.90;;;;;;5028082;28;20035;-45
2021/04/22 01:28:59;;;;;;;26.67;6.63;;;5.10;99.90;;;;;;5029237;28;20025;-45
2021/04/22 01:31:27;;;;;;;30.33;6.93;;;5.00;99.90;;;;;;5029135;28;20021;-47
2021/04/22 01:34:07;;;;;;;19.13;5.05;;;4.90;99.90;;;;;;5028226;28;20498;-45
2021/04/22 01:36:39;;;;;;;24.13;5.65;;;4.90;99.90;;;;;;5028158;28;20017;-46
2021/04/22 01:39:07;;;;;;;21.70;6.63;;;4.90;99.90;;;;;;5029075;28;20390;-46
2021/04/22 01:41:33;;;;;;;24.33;6.43;;;4.90;99.90;;;;;;5029253;28;20025;-46
2021/04/22 01:43:59;;;;;;;18.98;5.22;;;4.90;99.90;;;;;;5029164;28;20395;-46
2021/04/22 01:46:25;;;;;;;22.10;6.30;;;4.80;99.90;;;;;;5026260;28;20022;-47
2021/04/22 01:48:53;;;;;;;25.27;5.70;;;4.80;99.90;;;;;;5026414;28;20032;-45
2021/04/22 01:51:20;;;;;;;20.02;5.00;;;4.80;99.90;;;;;;5027516;28;20030;-46
2021/04/22 01:53:45;;;;;;;22.48;5.57;;;4.70;99.90;;;;;;5027703;28;20021;-46
2021/04/22 01:56:11;;;;;;;27.38;5.93;;;4.70;99.90;;;;;;5029059;28;20035;-47
2021/04/22 01:58:36;;;;;;;20.42;6.47;;;4.70;99.90;;;;;;5027992;28;20100;-47
2021/04/22 02:01:04;;;;;;;24.73;5.93;;;4.70;99.90;;;;;;5029453;28;20091;-47
2021/04/22 02:03:32;;;;;;;17.25;5.35;;;4.60;99.90;;;;;;5030209;28;20425;-46
2021/04/22 02:06:02;;;;;;;28.77;6.72;;;4.60;99.90;;;;;;5029648;28;20029;-46
2021/04/22 02:08:28;;;;;;;29.55;5.88;;;4.60;99.90;;;;;;5029203;28;20112;-47
2021/04/22 02:10:54;;;;;;;16.60;5.10;;;4.60;99.90;;;;;;5028867;28;20124;-47
2021/04/22 02:13:21;;;;;;;30.15;7.68;;;4.60;99.90;;;;;;5026563;28;20098;-46
2021/04/22 02:15:49;;;;;;;28.58;5.78;;;4.60;99.90;;;;;;5028563;28;20082;-47
2021/04/22 02:18:15;;;;;;;21.55;5.35;;;4.60;99.90;;;;;;5028039;28;20029;-47
2021/04/22 02:20:43;;;;;;;25.40;5.57;;;4.60;99.90;;;;;;5028561;28;20048;-46
2021/04/22 02:23:13;;;;;;;28.00;7.00;;;4.60;99.90;;;;;;5027804;28;20227;-49
2021/04/22 02:25:38;;;;;;;19.50;5.77;;;4.60;99.90;;;;;;5029262;28;20105;-47
2021/04/22 02:28:04;;;;;;;24.67;6.10;;;4.60;99.90;;;;;;5028644;28;20052;-47
2021/04/22 02:30:32;;;;;;;20.25;5.40;;;4.50;99.90;;;;;;5029244;28;20084;-45
2021/04/22 02:33:03;;;;;;;22.63;6.43;;;4.50;99.90;;;;;;5026927;28;20033;-46
2021/04/22 02:35:31;;;;;;;19.38;6.68;;;4.50;99.90;;;;;;5028404;28;20129;-47
2021/04/22 02:37:58;;;;;;;23.90;6.43;;;4.50;99.90;;;;;;5028465;28;20442;-46
2021/04/22 02:40:26;;;;;;;32.78;5.88;;;4.50;99.90;;;;;;5028532;28;20030;-49
2021/04/22 02:42:52;;;;;;;22.55;5.28;;;4.50;99.90;;;;;;5028705;28;20030;-47
2021/04/22 02:45:30;;;;;;;28.90;6.30;;;4.60;99.90;;;;;;5025723;28;20097;-46
2021/04/22 02:47:57;;;;;;;26.73;5.88;;;4.50;99.90;;;;;;5008243;28;20034;-45
2021/04/22 02:50:25;;;;;;;25.33;6.85;;;4.40;99.90;;;;;;5008922;28;20022;-45
2021/04/22 02:52:51;;;;;;;18.90;4.95;;;4.40;99.90;;;;;;5008886;28;20410;-45
2021/04/22 02:55:17;;;;;;;18.45;5.18;;;4.40;99.90;;;;;;5019615;28;20041;-46
2021/04/22 02:57:42;;;;;;;22.98;5.47;;;4.40;99.90;;;;;;5027168;28;20030;-48
2021/04/22 03:00:12;;;;;;;23.08;5.30;;;4.30;99.90;;;;;;5027241;28;20057;-46
2021/04/22 03:02:38;;;;;;;20.85;6.05;;;4.40;99.90;;;;;;5025908;28;20021;-45
2021/04/22 03:05:05;;;;;;;23.25;5.03;;;4.40;99.90;;;;;;5026931;28;20041;-46
2021/04/22 03:07:31;;;;;;;22.10;6.43;;;4.30;99.90;;;;;;5027200;28;20030;-47
2021/04/22 03:09:56;;;;;;;32.75;7.50;;;4.30;99.90;;;;;;5028145;28;20415;-46
2021/04/22 03:12:23;;;;;;;32.13;5.78;;;4.30;99.90;;;;;;5028292;28;20057;-46
2021/04/22 03:14:49;;;;;;;21.73;4.82;;;4.30;99.90;;;;;;5027129;28;20041;-47
2021/04/22 03:17:15;;;;;;;29.23;5.97;;;4.30;99.90;;;;;;5028335;28;20387;-45
2021/04/22 03:19:40;;;;;;;27.08;5.68;;;4.20;99.90;;;;;;5029086;28;20026;-45
2021/04/22 03:22:06;;;;;;;29.77;6.43;;;4.20;99.90;;;;;;5041870;28;20037;-45
2021/04/22 03:24:31;;;;;;;23.52;5.90;;;4.20;99.90;;;;;;5031460;28;20029;-45
2021/04/22 03:26:57;;;;;;;18.00;5.75;;;4.20;99.90;;;;;;5042212;28;20360;-45
2021/04/22 03:29:22;;;;;;;29.95;5.90;;;4.30;99.90;;;;;;5030999;28;20034;-45
2021/04/22 03:31:48;;;;;;;28.33;5.97;;;4.30;99.90;;;;;;5029991;28;20028;-46
2021/04/22 03:34:13;;;;;;;21.75;5.97;;;4.30;99.90;;;;;;5033303;28;20032;-45
2021/04/22 03:36:39;;;;;;;23.02;6.50;;;4.30;99.90;;;;;;5031716;28;20507;-47
2021/04/22 03:39:05;;;;;;;29.67;5.78;;;4.30;99.90;;;;;;5031442;28;20038;-46
2021/04/22 03:41:31;;;;;;;24.30;6.15;;;4.30;99.90;;;;;;5031322;28;20032;-47
2021/04/22 03:43:57;;;;;;;25.65;6.65;;;4.30;99.90;;;;;;5030897;28;20033;-46
2021/04/22 03:46:22;;;;;;;20.77;5.30;;;4.30;99.90;;;;;;5027543;28;20467;-48
2021/04/22 03:48:48;;;;;;;25.40;5.68;;;4.20;99.90;;;;;;5030525;28;20034;-45
2021/04/22 03:51:13;;;;;;;24.63;5.03;;;4.30;99.90;;;;;;5031418;28;20479;-46
2021/04/22 03:53:40;;;;;;;24.38;6.70;;;4.40;99.90;;;;;;5031469;28;20022;-47
2021/04/22 03:56:05;;;;;;;28.35;6.68;;;4.40;99.90;;;;;;5031093;28;20073;-47
2021/04/22 03:58:31;;;;;;;19.50;5.28;;;4.40;99.90;;;;;;5030110;28;20066;-46
2021/04/22 04:00:56;;;;;;;23.27;5.75;;;4.50;99.90;;;;;;5030930;28;20108;-46
2021/04/22 04:03:22;;;;;;;28.02;6.85;;;4.50;99.90;;;;;;5030289;28;20117;-46
2021/04/22 04:05:47;;;;;;;21.88;4.65;;;4.50;99.90;;;;;;5030758;28;20048;-46
2021/04/22 04:08:13;;;;;;;25.58;5.80;;;4.50;99.90;;;;;;5030289;28;20018;-46
2021/04/22 04:10:38;;;;;;;23.00;5.43;;;4.60;99.90;;;;;;5029523;28;20479;-44
2021/04/22 04:13:04;;;;;;;22.13;5.50;;;4.60;99.90;;;;;;5029080;28;20024;-46
2021/04/22 04:15:29;;;;;;;19.77;4.60;;;4.60;99.90;;;;;;5028680;28;20117;-47
2021/04/22 04:17:55;;;;;;;19.58;5.63;;;4.60;99.90;;;;;;5028558;28;20545;-46
2021/04/22 04:20:21;;;;;;;20.23;5.15;;;4.60;99.90;;;;;;5030500;28;20030;-46
2021/04/22 04:22:47;;;;;;;29.35;6.10;;;4.60;99.90;;;;;;5030519;28;20055;-46
2021/04/22 04:25:13;;;;;;;23.33;5.47;;;4.70;99.90;;;;;;5030736;28;20048;-48
2021/04/22 04:27:40;;;;;;;18.40;4.88;;;4.70;99.90;;;;;;5030198;28;20032;-50
2021/04/22 04:30:07;;;;;;;18.73;4.57;;;4.70;99.90;;;;;;5030177;28;20037;-47
2021/04/22 04:32:33;;;;;;;24.52;6.07;;;4.70;99.90;;;;;;5030385;28;20056;-46
2021/04/22 04:34:58;;;;;;;23.25;6.05;;;4.80;99.90;;;;;;5029286;28;20251;-47
2021/04/22 04:37:24;;;;;;;25.20;5.40;;;4.80;99.90;;;;;;5030184;28;20017;-49
2021/04/22 04:39:49;;;;;;;18.45;4.80;;;4.80;99.90;;;;;;5030319;28;20120;-46
2021/04/22 04:42:15;;;;;;;19.83;5.13;;;4.90;99.90;;;;;;5028808;28;20104;-46
2021/04/22 04:44:41;;;;;;;21.75;4.95;;;4.90;99.90;;;;;;5028864;28;20122;-47
2021/04/22 04:47:06;;;;;;;36.15;5.07;;;5.00;99.90;;;;;;5029225;28;20371;-47
2021/04/22 04:49:32;;;;;;;23.15;4.78;;;5.10;99.90;;;;;;5029521;28;20092;-46
2021/04/22 04:51:57;;;;;;;25.88;5.55;;;5.20;99.90;;;;;;5028860;28;20014;-46
2021/04/22 04:54:23;;;;;;;26.65;5.00;;;5.20;99.90;;;;;;5029839;28;20156;-47
2021/04/22 04:56:48;;;;;;;24.67;5.82;;;5.20;99.90;;;;;;5029404;28;20115;-47
2021/04/22 04:59:14;;;;;;;25.52;5.45;;;5.30;99.90;;;;;;5028949;28;20033;-46
2021/04/22 05:01:39;;;;;;;27.50;5.30;;;5.30;99.90;;;;;;5028089;28;20619;-46
2021/04/22 05:04:05;;;;;;;14.20;4.28;;;5.40;99.90;;;;;;5029197;28;20426;-47
2021/04/22 05:06:31;;;;;;;23.63;5.80;;;5.50;99.90;;;;;;5030064;28;20026;-46
2021/04/22 05:08:57;;;;;;;19.30;4.97;;;5.50;99.90;;;;;;5028381;28;20568;-47
2021/04/22 05:11:22;;;;;;;21.83;4.35;;;5.50;99.90;;;;;;5029964;28;20030;-47
2021/04/22 05:13:48;;;;;;;28.98;5.68;;;5.60;99.90;;;;;;5028922;28;20259;-47
2021/04/22 05:16:15;;;;;;;19.35;5.25;;;5.70;99.90;;;;;;5029229;28;20124;-47
2021/04/22 05:18:40;;;;;;;21.75;4.38;;;5.70;99.90;;;;;;5029054;28;20021;-47
2021/04/22 05:21:06;;;;;;;21.85;4.70;;;5.70;99.90;;;;;;5029413;28;20025;-48
2021/04/22 05:23:32;;;;;;;19.80;4.53;;;5.70;99.90;;;;;;5029597;28;20091;-50
2021/04/22 05:25:58;;;;;;;20.70;5.15;;;5.80;99.90;;;;;;5029494;28;20530;-46
2021/04/22 05:28:24;;;;;;;19.38;4.57;;;5.90;99.90;;;;;;5027754;28;20025;-46
2021/04/22 05:30:50;;;;;;;16.23;5.10;;;5.90;99.90;;;;;;5028959;28;20029;-45
2021/04/22 05:33:15;;;;;;;17.15;4.60;;;6.00;99.90;;;;;;5034380;28;20104;-48
2021/04/22 05:35:42;;;;;;;19.60;4.85;;;6.10;99.90;;;;;;5036417;28;20111;-47
2021/04/22 05:38:08;;;;;;;14.00;4.78;;;6.10;99.90;;;;;;5037631;28;20022;-46
2021/04/22 05:40:35;;;;;;;28.20;5.60;;;6.10;99.90;;;;;;5039852;28;20029;-45
2021/04/22 05:43:00;;;;;;;26.83;4.95;;;6.10;99.90;;;;;;5034515;28;20079;-46
2021/04/22 05:45:26;;;;;;;30.67;6.28;;;6.10;99.90;;;;;;5035831;28;20029;-46
2021/04/22 05:47:53;;;;;;;19.67;4.63;;;6.10;99.90;;;;;;5041764;28;20033;-45
2021/04/22 05:50:20;;;;;;;21.17;5.00;;;6.20;99.90;;;;;;5032898;28;20502;-45
2021/04/22 05:52:46;;;;;;;23.15;6.03;;;6.20;99.90;;;;;;5029807;28;20498;-47
2021/04/22 05:55:14;;;;;;;24.27;5.20;;;6.30;99.90;;;;;;5028627;28;20064;-46
2021/04/22 05:57:40;;;;;;;34.72;5.97;;;6.40;99.90;;;;;;5032426;28;20022;-48
2021/04/22 06:00:08;;;;;;;30.30;5.00;;;6.40;99.90;;;;;;5030880;28;20029;-46
2021/04/22 06:02:34;;;;;;;36.67;5.90;;;6.40;99.90;;;;;;5030872;28;20360;-46
2021/04/22 06:05:00;;;;;;;19.88;4.43;;;6.40;99.90;;;;;;5030909;28;20036;-48
2021/04/22 06:07:27;;;;;;;25.88;5.20;;;6.50;99.90;;;;;;5031703;28;20043;-47
2021/04/22 06:09:53;;;;;;;28.80;4.90;;;6.50;99.90;;;;;;5031643;28;20028;-46
2021/04/22 06:12:19;;;;;;;25.75;5.13;;;6.60;99.90;;;;;;5030842;28;20025;-45
2021/04/22 06:14:44;;;;;;;25.45;5.80;;;6.70;99.90;;;;;;5029024;28;20524;-47
2021/04/22 06:17:10;;;;;;;15.45;4.43;;;6.80;99.90;;;;;;5027252;28;20022;-47
2021/04/22 06:19:35;;;;;;;16.38;4.60;;;6.90;99.90;;;;;;5027456;28;20458;-45
2021/04/22 06:22:01;;;;;;;18.60;5.28;;;7.00;99.90;;;;;;5026945;28;20044;-46
2021/04/22 06:24:27;;;;;;;25.40;5.93;;;7.00;99.90;;;;;;5028158;28;20063;-47
2021/04/22 06:26:52;;;;;;;24.88;4.85;;;7.00;99.90;;;;;;5028260;28;20260;-47
2021/04/22 06:29:18;;;;;;;21.50;4.68;;;7.00;99.90;;;;;;5027599;28;20459;-47
2021/04/22 06:31:45;;;;;;;15.60;4.45;;;7.00;99.90;;;;;;5028494;28;20025;-46
2021/04/22 06:34:12;;;;;;;23.27;4.72;;;7.20;99.90;;;;;;5028309;28;20021;-46
2021/04/22 06:36:39;;;;;;;15.85;4.65;;;7.30;99.90;;;;;;5028166;28;20069;-46
2021/04/22 06:39:06;;;;;;;17.27;4.25;;;7.40;99.90;;;;;;5027270;28;20108;-46
2021/04/22 06:41:31;;;;;;;14.10;4.60;;;7.50;99.80;;;;;;5028104;28;20033;-46
2021/04/22 06:43:58;;;;;;;20.33;5.15;;;7.50;99.70;;;;;;5028007;28;20029;-47
2021/04/22 06:46:23;;;;;;;19.65;4.30;;;7.50;98.80;;;;;;5016838;28;20388;-47
2021/04/22 06:48:50;;;;;;;25.13;4.47;;;7.70;99.30;;;;;;5012450;28;20036;-47
2021/04/22 06:51:16;;;;;;;19.60;4.63;;;7.80;98.40;;;;;;5029237;28;20021;-50
2021/04/22 06:53:41;;;;;;;18.55;4.47;;;7.80;98.30;;;;;;5028649;28;20040;-50
2021/04/22 06:56:07;;;;;;;19.52;5.18;;;7.90;97.50;;;;;;5028639;28;20396;-47
2021/04/22 06:58:32;;;;;;;16.55;4.22;;;7.80;98.00;;;;;;5028036;28;20108;-49
2021/04/22 07:00:58;;;;;;;26.23;3.70;;;7.80;98.30;;;;;;5028310;28;20216;-47
2021/04/22 07:03:23;;;;;;;21.42;4.25;;;7.70;97.50;;;;;;5028607;28;20065;-47
2021/04/22 07:05:49;;;;;;;21.20;4.63;;;7.70;96.50;;;;;;5027935;28;20104;-47
2021/04/22 07:08:14;;;;;;;24.10;4.15;;;7.70;97.60;;;;;;5026838;28;20029;-47
2021/04/22 07:10:41;;;;;;;18.15;4.40;;;7.60;97.60;;;;;;5028635;28;20030;-47
2021/04/22 07:13:07;;;;;;;15.00;3.80;;;7.60;97.50;;;;;;5028301;28;20129;-47
2021/04/22 07:15:33;;;;;;;20.67;4.32;;;7.70;97.80;;;;;;5028079;28;20112;-47
2021/04/22 07:18:01;;;;;;;13.27;4.22;;;7.80;97.30;;;;;;5027372;28;20080;-50
2021/04/22 07:20:27;;;;;;;20.40;4.43;;;7.90;96.70;;;;;;5025677;28;20025;-48
2021/04/22 07:22:55;;;;;;;19.02;4.65;;;8.00;96.10;;;;;;5027747;28;20025;-49
2021/04/22 07:25:23;;;;;;;17.80;4.13;;;8.10;96.80;;;;;;5028026;28;20391;-49
2021/04/22 07:27:48;;;;;;;17.10;4.20;;;8.20;95.30;;;;;;5027052;28;20034;-48
2021/04/22 07:30:14;;;;;;;18.15;3.90;;;8.30;95.20;;;;;;5026056;28;20128;-46
2021/04/22 07:32:40;;;;;;;21.17;4.03;;;8.40;96.10;;;;;;5027221;28;20037;-46
2021/04/22 07:35:07;;;;;;;25.92;4.10;;;8.60;94.70;;;;;;5023369;28;20038;-47
2021/04/22 07:37:33;;;;;;;24.75;5.70;;;8.70;94.90;;;;;;5007871;28;20022;-47
2021/04/22 07:39:58;;;;;;;20.48;5.22;;;8.70;94.80;;;;;;5008143;28;20045;-47
2021/04/22 07:42:24;;;;;;;20.15;3.83;;;8.70;94.30;;;;;;5023362;28;20024;-48
2021/04/22 07:44:49;;;;;;;16.52;3.63;;;8.80;94.30;;;;;;5028072;28;20046;-48
2021/04/22 07:47:17;;;;;;;17.20;3.95;;;9.00;94.80;;;;;;5027155;28;20025;-50
2021/04/22 07:49:46;;;;;;;13.82;4.47;;;9.10;93.30;;;;;;5027445;28;20014;-47
2021/04/22 07:52:16;;;;;;;22.40;4.30;;;9.20;93.80;;;;;;5026120;28;20501;-47
2021/04/22 07:54:42;;;;;;;18.92;4.10;;;9.30;92.30;;;;;;5027379;28;20029;-48
2021/04/22 07:57:09;;;;;;;12.63;3.28;;;9.30;92.50;;;;;;5027452;28;20049;-49
2021/04/22 07:59:34;;;;;;;27.30;4.55;;;9.10;91.40;;;;;;5027268;28;20030;-48
2021/04/22 08:02:00;;;;;;;13.00;3.92;;;9.10;92.60;;;;;;5027559;28;20040;-47
2021/04/22 08:04:25;;;;;;;18.50;3.70;;;9.20;91.70;;;;;;5026189;28;20034;-48
2021/04/22 08:06:51;;;;;;;15.50;3.83;;;9.60;92.70;;;;;;5027748;28;20044;-47
2021/04/22 08:09:16;;;;;;;12.32;3.42;;;10.10;91.70;;;;;;5027224;28;20033;-47
2021/04/22 08:11:42;;;;;;;13.48;3.97;;;10.70;86.40;;;;;;5027894;28;20033;-47
2021/04/22 08:14:07;;;;;;;15.20;3.47;;;10.70;82.00;;;;;;5026423;28;20037;-47
2021/04/22 08:16:33;;;;;;;15.00;3.30;;;10.60;81.10;;;;;;5017714;28;20084;-50
2021/04/22 08:18:58;;;;;;;14.43;3.15;;;10.60;83.80;;;;;;5008863;28;20372;-47
2021/04/22 08:21:24;;;;;;;13.18;3.38;;;10.70;84.30;;;;;;5011668;28;20030;-47
2021/04/22 08:23:50;;;;;;;14.63;3.72;;;10.40;82.10;;;;;;5011663;28;20471;-47
2021/04/22 08:26:18;;;;;;;11.48;3.00;;;10.60;82.00;;;;;;5011530;28;20033;-50
2021/04/22 08:28:46;;;;;;;13.38;3.10;;;10.80;80.30;;;;;;5009638;28;20022;-48
2021/04/22 08:31:19;;;;;;;14.35;3.53;;;11.00;81.40;;;;;;5011084;28;20034;-48
2021/04/22 08:33:47;;;;;;;13.50;3.10;;;11.50;78.50;;;;;;5011275;28;20030;-47
2021/04/22 08:36:13;;;;;;;11.27;2.53;;;11.90;73.20;;;;;;5011393;28;20030;-47
2021/04/22 08:38:39;;;;;;;9.18;2.63;;;12.20;72.90;;;;;;5010695;28;20423;-47
2021/04/22 08:41:04;;;;;;;9.32;3.10;;;12.30;67.90;;;;;;5009914;28;20025;-46
2021/04/22 08:43:31;;;;;;;12.70;2.80;;;12.50;69.80;;;;;;5009735;28;20087;-47
2021/04/22 08:45:57;;;;;;;7.85;2.70;;;12.60;65.50;;;;;;5015146;28;20097;-47
2021/04/22 08:48:23;;;;;;;9.43;2.88;;;12.50;65.30;;;;;;5030375;28;20167;-48
2021/04/22 08:50:50;;;;;;;11.63;3.20;;;12.80;65.60;;;;;;5030873;28;20513;-47
2021/04/22 08:53:25;;;;;;;9.68;2.35;;;13.70;62.40;;;;;;5030938;28;20033;-49
2021/04/22 08:55:51;;;;;;;10.48;3.78;;;14.20;62.60;;;;;;5031072;28;20060;-48
2021/04/22 08:58:17;;;;;;;14.30;3.30;;;14.30;58.80;;;;;;5030208;28;20025;-47
2021/04/22 09:00:50;;;;;;;15.73;3.72;;;14.00;60.40;;;;;;5030666;28;20036;-47
2021/04/22 09:03:15;;;;;;;13.48;2.97;;;13.40;62.20;;;;;;5030366;28;20098;-46
2021/04/22 09:05:41;;;;;;;11.15;3.35;;;13.20;63.90;;;;;;5030650;28;20049;-47
2021/04/22 09:08:08;;;;;;;15.77;3.38;;;12.90;64.70;;;;;;5028587;28;20430;-46
2021/04/22 09:10:34;;;;;;;14.82;3.17;;;13.00;65.00;;;;;;5030345;28;20126;-47
2021/04/22 09:13:06;;;;;;;12.35;2.92;;;13.10;63.20;;;;;;5030414;28;20026;-47
2021/04/22 09:15:34;;;;;;;16.38;3.22;;;12.60;63.00;;;;;;5030583;28;20026;-47
2021/04/22 09:18:04;;;;;;;15.57;3.50;;;12.00;65.90;;;;;;5029482;28;20030;-45
2021/04/22 09:20:33;;;;;;;12.73;3.83;;;11.80;65.60;;;;;;5030186;28;20025;-45
2021/04/22 09:22:59;;;;;;;8.85;2.97;;;11.70;64.90;;;;;;5030211;28;20029;-46
2021/04/22 09:25:26;;;;;;;15.13;3.50;;;12.20;68.20;;;;;;5029953;28;20036;-48
2021/04/22 09:28:10;;;;;;;12.55;3.53;;;12.40;67.20;;;;;;5029492;28;20026;-49
2021/04/22 09:30:43;;;;;;;15.50;3.72;;;12.40;65.00;;;;;;5030818;28;20657;-48
2021/04/22 09:33:20;;;;;;;17.50;3.83;;;11.80;64.70;;;;;;5031476;28;20056;-46
2021/04/22 09:35:46;;;;;;;15.20;3.40;;;11.50;68.10;;;;;;5031059;28;20068;-46
2021/04/22 09:38:14;;;;;;;11.77;3.53;;;11.70;67.20;;;;;;5030256;28;20061;-45
2021/04/22 09:40:42;;;;;;;11.13;3.67;;;11.80;70.00;;;;;;5030973;28;20108;-48
2021/04/22 09:43:14;;;;;;;14.27;3.08;;;12.90;67.20;;;;;;5031307;28;20025;-47
2021/04/22 09:45:45;;;;;;;7.60;3.25;;;13.40;62.70;;;;;;5029189;28;20029;-48
2021/04/22 09:48:21;;;;;;;15.85;3.30;;;14.00;59.70;;;;;;5010810;28;20030;-50
2021/04/22 09:50:48;;;;;;;8.52;3.35;;;14.80;60.30;;;;;;5011725;28;20411;-48
2021/04/22 09:53:17;;;;;;;9.98;2.70;;;15.00;56.80;;;;;;5011642;28;20030;-47
2021/04/22 09:55:45;;;;;;;8.82;2.75;;;14.80;56.70;;;;;;5011695;28;20030;-47
2021/04/22 09:58:11;;;;;;;14.43;2.65;;;15.00;57.90;;;;;;5010964;28;20022;-50
2021/04/22 10:00:37;;;;;;;8.27;3.40;;;15.40;53.60;;;;;;5011750;28;20076;-49
2021/04/22 10:03:09;;;;;;;14.25;3.00;;;16.10;54.30;;;;;;5011203;28;20029;-49
2021/04/22 10:05:37;;;;;;;11.80;3.13;;;16.30;51.50;;;;;;5011325;28;20476;-47
2021/04/22 10:08:07;;;;;;;12.88;2.92;;;15.80;51.40;;;;;;5019386;28;20031;-47
2021/04/22 10:10:34;;;;;;;10.48;2.58;;;15.40;51.70;;;;;;5031049;28;20100;-47
2021/04/22 10:13:06;;;;;;;10.52;3.45;;;14.90;52.20;;;;;;5030883;28;20032;-50
2021/04/22 10:15:33;;;;;;;11.02;2.97;;;15.00;53.50;;;;;;5030961;28;20082;-48
2021/04/22 10:18:00;;;;;;;8.38;2.75;;;15.30;53.20;;;;;;5030035;28;20029;-50
2021/04/22 10:20:27;;;;;;;10.52;2.67;;;15.20;51.30;;;;;;5030831;28;20113;-48
2021/04/22 10:22:54;;;;;;;14.50;3.47;;;15.10;51.10;;;;;;5030950;28;20017;-49
2021/04/22 10:25:34;;;;;;;11.68;3.55;;;14.90;54.40;;;;;;5030821;28;20017;-48
2021/04/22 10:28:08;;;;;;;14.23;4.50;;;14.40;54.50;;;;;;5028958;28;20096;-48
2021/04/22 10:30:34;;;;;;;12.25;3.63;;;14.30;55.80;;;;;;5028531;28;20041;-47
2021/04/22 10:33:00;;;;;;;13.15;3.20;;;15.40;59.10;;;;;;5028403;28;20030;-50
2021/04/22 10:35:29;;;;;;;12.75;3.17;;;16.50;53.50;;;;;;5028818;28;20340;-49
2021/04/22 10:37:55;;;;;;;11.43;3.05;;;17.80;49.40;;;;;;5028266;28;20483;-48
2021/04/22 10:40:24;;;;;;;11.98;3.40;;;17.70;49.30;;;;;;5028783;28;20030;-49
2021/04/22 10:42:52;;;;;;;13.98;3.75;;;17.80;47.60;;;;;;5028902;28;20032;-51
2021/04/22 10:45:18;;;;;;;7.82;3.25;;;17.40;48.40;;;;;;5028906;28;20021;-48
2021/04/22 10:47:45;;;;;;;12.88;3.63;;;16.40;48.80;;;;;;5026178;28;20025;-48
2021/04/22 10:50:16;;;;;;;11.30;3.33;;;15.00;52.50;;;;;;5028498;28;20021;-48
2021/04/22 10:52:42;;;;;;;;;;;14.20;55.30;;;;;;5028871;28;20057;-48
2021/04/22 10:55:22;;;;;;;10.73;3.30;;;14.30;56.20;;;;;;5028231;28;19905;-47
2021/04/22 10:57:54;;;;;;;16.52;4.20;;;14.10;56.70;;;;;;5028122;28;20164;-49
2021/04/22 11:00:23;;;;;;;12.65;2.97;;;14.40;56.80;;;;;;5028754;28;20065;-48
2021/04/22 11:02:52;;;;;;;15.45;4.82;;;15.10;54.50;;;;;;5028296;28;20033;-48
2021/04/22 11:05:28;;;;;;;12.38;3.42;;;15.70;55.50;;;;;;5028730;28;20036;-48
2021/04/22 11:08:06;;;;;;;12.98;3.60;;;16.20;51.10;;;;;;5028535;28;20132;-48
2021/04/22 11:10:36;;;;;;;10.82;3.88;;;15.50;52.70;;;;;;5027913;28;20029;-48
2021/04/22 11:13:18;;;;;;;9.67;3.20;;;14.60;52.20;;;;;;5026681;28;20022;-49
2021/04/22 11:15:53;;;;;;;14.18;3.83;;;15.60;54.50;;;;;;5029038;28;20705;-48
2021/04/22 11:18:19;;;;;;;12.02;3.25;;;15.40;50.30;;;;;;5027364;28;20329;-48
2021/04/22 11:20:45;;;;;;;14.05;3.25;;;15.50;52.00;;;;;;5027588;28;20391;-49
2021/04/22 11:23:14;;;;;;;12.57;3.55;;;14.70;51.60;;;;;;5027328;28;20495;-48
2021/04/22 11:25:52;;;;;;;15.55;3.75;;;15.20;48.90;;;;;;5027468;28;20098;-48
2021/04/22 11:28:30;;;;;;;11.80;3.60;;;15.10;50.40;;;;;;5022848;28;20022;-48
2021/04/22 11:31:14;;;;;;;19.40;3.25;;;15.10;50.10;;;;;;5008551;28;20036;-48
2021/04/22 11:33:40;;;;;;;12.15;3.78;;;15.40;51.40;;;;;;5008338;28;20045;-50
2021/04/22 11:36:20;;;;;;;15.05;3.67;;;16.60;49.80;;;;;;5007185;28;20057;-49
2021/04/22 11:39:06;;;;;;;13.52;3.55;;;17.70;45.90;;;;;;5006727;28;20553;-48
2021/04/22 11:41:35;;;;;;;10.40;3.08;;;17.10;44.90;;;;;;5008527;28;20038;-48
2021/04/22 11:44:09;;;;;;;14.63;3.60;;;16.70;48.10;;;;;;5014675;28;20036;-47
2021/04/22 11:46:43;;;;;;;11.35;3.38;;;16.60;47.10;;;;;;5026733;28;20100;-48
2021/04/22 11:49:22;;;;;;;14.13;3.58;;;15.80;47.50;;;;;;5027228;28;20021;-49
2021/04/22 11:51:49;;;;;;;16.88;3.60;;;16.40;47.90;;;;;;5027711;28;20017;-48
2021/04/22 11:54:33;;;;;;;13.57;3.72;;;17.40;47.40;;;;;;5029827;28;20435;-48
2021/04/22 11:57:05;;;;;;;17.75;2.75;;;18.10;44.10;;;;;;5031278;28;20072;-48
2021/04/22 11:59:31;;;;;;;10.85;3.63;;;17.90;41.60;;;;;;5028534;28;20026;-47
2021/04/22 12:02:09;;;;;;;9.57;3.78;;;16.60;43.00;;;;;;5030537;28;20049;-47
2021/04/22 12:04:39;;;;;;;13.57;3.58;;;15.80;46.50;;;;;;5028935;28;20419;-47
2021/04/22 12:07:06;;;;;;;18.15;3.70;;;15.60;47.50;;;;;;5030935;28;20107;-47
2021/04/22 12:09:33;;;;;;;10.00;3.17;;;15.30;48.60;;;;;;5030792;28;20022;-47
2021/04/22 12:12:16;;;;;;;15.30;3.80;;;15.60;47.70;;;;;;5031761;28;20332;-47
2021/04/22 12:14:42;;;;;;;21.30;3.80;;;15.30;49.00;;;;;;5031153;28;20026;-47
2021/04/22 12:17:21;;;;;;;9.73;3.47;;;15.20;47.50;;;;;;5028301;28;20025;-47
2021/04/22 12:19:49;;;;;;;9.63;3.20;;;14.70;50.10;;;;;;5031295;28;20598;-47
2021/04/22 12:22:26;;;;;;;21.00;4.88;;;14.80;49.30;;;;;;5031071;28;20479;-47
2021/04/22 12:24:52;;;;;;;13.43;3.45;;;14.70;50.20;;;;;;5029294;28;20049;-47
2021/04/22 12:27:27;;;;;;;8.27;2.90;;;14.80;47.20;;;;;;5026558;28;20053;-49
2021/04/22 12:29:53;;;;;;;12.32;3.33;;;14.70;47.10;;;;;;5011525;28;20038;-47
2021/04/22 12:32:20;;;;;;;13.02;4.07;;;14.70;48.60;;;;;;5011172;28;20022;-46
2021/04/22 12:34:46;;;;;;;7.80;2.80;;;14.80;48.30;;;;;;5011612;28;20109;-47
2021/04/22 12:37:13;;;;;;;11.48;3.20;;;14.60;48.50;;;;;;5011410;28;20617;-47
2021/04/22 12:39:54;;;;;;;11.43;3.47;;;14.50;48.80;;;;;;5011011;28;20113;-47
2021/04/22 12:42:28;;;;;;;9.13;3.28;;;14.30;49.40;;;;;;5010337;28;20523;-47
2021/04/22 12:44:58;;;;;;;10.77;3.75;;;14.00;49.50;;;;;;5011508;28;20026;-49